createdAt,value
2023-03-29T16:01:51.264Z,4.20
2023-03-29T16:03:24.709Z,4.00
2023-03-29T16:04:56.686Z,5.60
2023-03-29T16:06:28.656Z,4.40
2023-03-29T16:08:00.706Z,3.80
2023-03-29T16:09:32.853Z,3.20
2023-03-29T16:11:07.013Z,5.00
2023-03-29T16:12:39.386Z,3.80
2023-03-29T16:14:13.936Z,3.00
2023-03-29T16:15:45.941Z,3.60
2023-03-29T16:17:17.905Z,2.60
2023-03-29T16:18:49.798Z,3.60
2023-03-29T16:20:21.914Z,3.00
2023-03-29T16:21:54.377Z,5.00
2023-03-29T16:23:26.768Z,5.00
2023-03-29T16:24:58.846Z,5.00
2023-03-29T16:26:31.971Z,3.80
2023-03-29T16:28:05.175Z,3.40
2023-03-29T16:29:37.426Z,3.80
2023-03-29T16:31:13.134Z,5.80
2023-03-29T16:32:46.085Z,4.00
2023-03-29T16:34:19.376Z,3.20
2023-03-29T16:35:51.969Z,4.60
2023-03-29T16:37:24.019Z,4.40
2023-03-29T16:38:55.937Z,3.60
2023-03-29T16:40:28.100Z,4.40
2023-03-29T16:41:59.967Z,4.00
2023-03-29T16:43:31.926Z,5.00
2023-03-29T16:45:04.012Z,4.20
2023-03-29T16:46:35.987Z,3.00
2023-03-29T16:48:13.166Z,6.00
2023-03-29T16:49:48.759Z,4.60
2023-03-29T16:51:21.610Z,6.20
2023-03-29T16:52:53.890Z,6.20
2023-03-29T16:54:31.853Z,6.00
2023-03-29T16:56:04.431Z,5.40
2023-03-29T16:57:36.704Z,4.20
2023-03-29T16:59:09.701Z,5.00
2023-03-29T17:00:41.642Z,4.40
2023-03-29T17:02:13.604Z,2.00
2023-03-29T17:03:45.822Z,4.00
2023-03-29T17:05:18.447Z,2.00
2023-03-29T17:06:50.336Z,5.00
2023-03-29T17:08:22.254Z,5.60
2023-03-29T17:09:54.529Z,8.20
2023-03-29T17:11:28.464Z,15.40
2023-03-29T17:13:01.013Z,24.20
2023-03-29T17:14:33.001Z,38.40
2023-03-29T17:16:05.843Z,37.80
2023-03-29T17:17:38.060Z,51.40
2023-03-29T17:19:10.152Z,53.00
2023-03-29T17:20:42.121Z,65.25
2023-03-29T17:22:14.239Z,65.50
2023-03-29T17:23:46.107Z,79.00
2023-03-29T17:25:18.439Z,90.00
2023-03-29T17:26:50.610Z,87.75
2023-03-29T17:28:23.073Z,93.00
2023-03-29T17:29:55.081Z,93.60
2023-03-29T17:31:27.132Z,102.00
2023-03-29T17:32:59.196Z,98.00
2023-03-29T17:34:33.101Z,110.60
2023-03-29T17:36:05.950Z,114.00
2023-03-29T17:37:38.403Z,94.00
2023-03-29T17:39:10.306Z,115.00
2023-03-29T17:40:42.277Z,105.50
2023-03-29T17:42:14.164Z,111.25
2023-03-29T17:43:46.202Z,122.00
2023-03-29T17:45:18.252Z,118.50
2023-03-29T17:46:50.307Z,130.00
2023-03-29T17:48:23.291Z,136.50
2023-03-29T17:49:55.543Z,132.75
2023-03-29T17:51:27.801Z,143.25
2023-03-29T17:52:59.664Z,140.75
2023-03-29T17:54:31.575Z,137.50
2023-03-29T17:56:03.897Z,143.25
2023-03-29T17:57:35.958Z,142.50
2023-03-29T17:59:07.981Z,146.50
2023-03-29T18:00:39.912Z,138.50
2023-03-29T18:02:22.834Z,133.75
2023-03-29T18:03:54.794Z,140.50
2023-03-29T18:05:26.801Z,145.75
2023-03-29T18:06:58.702Z,143.25
2023-03-29T18:08:31.394Z,136.50
2023-03-29T18:10:03.391Z,134.25
2023-03-29T18:11:36.534Z,137.50
2023-03-29T18:13:11.462Z,174.50
2023-03-29T18:14:43.397Z,129.75
2023-03-29T18:16:15.330Z,126.25
2023-03-29T18:17:47.376Z,107.00
2023-03-29T18:19:19.413Z,93.00
2023-03-29T18:20:51.810Z,84.25
2023-03-29T18:22:24.275Z,68.75
2023-03-29T18:23:56.908Z,63.75
2023-03-29T18:25:29.659Z,49.75
2023-03-29T18:27:01.517Z,53.75
2023-03-29T18:28:33.948Z,51.50
2023-03-29T18:30:06.673Z,49.60
2023-03-29T18:31:38.622Z,50.25
2023-03-29T18:33:10.745Z,69.00
2023-03-29T18:34:42.712Z,68.25
2023-03-29T18:36:14.828Z,78.50
2023-03-29T18:37:47.223Z,70.00
2023-03-29T18:39:19.157Z,70.00
2023-03-29T18:40:51.687Z,67.50
2023-03-29T18:42:23.663Z,65.50
2023-03-29T18:43:57.490Z,65.25
2023-03-29T18:45:29.439Z,63.00
2023-03-29T18:47:01.375Z,54.00
2023-03-29T18:48:39.032Z,55.25
2023-03-29T18:50:12.492Z,54.50
2023-03-29T18:51:44.379Z,54.50
2023-03-29T18:53:16.841Z,51.00
2023-03-29T18:54:48.717Z,53.00
2023-03-29T18:56:20.904Z,48.50
2023-03-29T18:57:52.751Z,49.25
2023-03-29T18:59:24.715Z,49.25
2023-03-29T19:01:04.328Z,45.00
2023-03-29T19:02:36.408Z,44.60
2023-03-29T19:04:08.496Z,47.00
2023-03-29T19:05:40.491Z,46.20
2023-03-29T19:07:12.676Z,42.40
2023-03-29T19:08:44.565Z,43.60
2023-03-29T19:10:17.008Z,40.80
2023-03-29T19:11:49.020Z,36.80
2023-03-29T19:13:20.944Z,39.80
2023-03-29T19:14:52.753Z,38.20
2023-03-29T19:16:28.273Z,40.20
2023-03-29T19:18:00.246Z,36.00
2023-03-29T19:19:32.259Z,35.60
2023-03-29T19:21:04.126Z,36.00
2023-03-29T19:22:37.377Z,38.00
2023-03-29T19:24:09.493Z,34.20
2023-03-29T19:25:41.507Z,38.40
2023-03-29T19:27:13.738Z,34.20
2023-03-29T19:28:46.299Z,30.40
2023-03-29T19:30:20.254Z,34.20
2023-03-29T19:31:52.255Z,29.80
2023-03-29T19:33:24.418Z,32.20
2023-03-29T19:34:56.435Z,30.20
2023-03-29T19:36:28.486Z,29.80
2023-03-29T19:38:00.613Z,32.00
2023-03-29T19:39:32.894Z,30.80
2023-03-29T19:41:07.766Z,25.60
2023-03-29T19:42:40.284Z,28.40
2023-03-29T19:44:13.932Z,21.40
2023-03-29T19:45:46.776Z,28.20
2023-03-29T19:47:18.638Z,30.20
2023-03-29T19:48:54.978Z,28.60
2023-03-29T19:50:26.877Z,22.40
2023-03-29T19:51:59.276Z,19.80
2023-03-29T19:53:31.926Z,27.60
2023-03-29T19:55:04.289Z,22.20
2023-03-29T19:56:36.327Z,24.00
2023-03-29T19:58:09.087Z,27.40
2023-03-29T19:59:43.169Z,19.40
2023-03-29T20:01:15.805Z,24.80
2023-03-29T20:02:47.869Z,26.60
2023-03-29T20:04:21.021Z,27.20
2023-03-29T20:05:52.913Z,26.80
2023-03-29T20:07:24.880Z,22.40
2023-03-29T20:08:57.795Z,25.00
2023-03-29T20:10:29.711Z,31.60
2023-03-29T20:12:01.574Z,42.20
2023-03-29T20:13:38.895Z,43.40
2023-03-29T20:15:11.334Z,71.00
2023-03-29T20:16:44.277Z,89.75
2023-03-29T20:18:16.282Z,87.00
2023-03-29T20:19:48.234Z,82.80
2023-03-29T20:21:20.235Z,107.00
2023-03-29T20:22:54.184Z,119.00
2023-03-29T20:24:26.483Z,110.75
2023-03-29T20:25:58.521Z,117.00
2023-03-29T20:27:31.134Z,115.25
2023-03-29T20:29:03.338Z,120.25
2023-03-29T20:30:36.422Z,124.00
2023-03-29T20:32:09.250Z,130.75
2023-03-29T20:33:44.580Z,121.50
2023-03-29T20:35:16.659Z,129.50
2023-03-29T20:36:48.715Z,126.00
2023-03-29T20:38:21.650Z,126.25
2023-03-29T20:39:53.639Z,123.00
2023-03-29T20:41:26.026Z,134.00
2023-03-29T20:42:58.001Z,125.00
2023-03-29T20:44:32.404Z,126.25
2023-03-29T20:46:05.812Z,119.75
2023-03-29T20:47:42.581Z,120.25
2023-03-29T20:49:14.542Z,126.50
2023-03-29T20:50:49.524Z,131.75
2023-03-29T20:52:22.079Z,139.50
2023-03-29T20:53:54.293Z,167.50
2023-03-29T20:55:26.153Z,159.25
2023-03-29T20:56:58.092Z,147.50
2023-03-29T20:58:30.819Z,152.00
2023-03-29T21:00:12.018Z,155.00
2023-03-29T21:01:44.052Z,148.75
2023-03-29T21:03:16.106Z,140.50
2023-03-29T21:04:52.052Z,146.75
2023-03-29T21:06:26.568Z,137.50
2023-03-29T21:07:58.443Z,145.75
2023-03-29T21:09:31.213Z,137.00
2023-03-29T21:11:03.346Z,143.00
2023-03-29T21:12:35.587Z,132.00
2023-03-29T21:14:07.474Z,132.25
2023-03-29T21:15:40.745Z,125.75
2023-03-29T21:17:12.933Z,115.25
2023-03-29T21:18:44.769Z,124.00
2023-03-29T21:20:16.701Z,121.50
2023-03-29T21:21:52.267Z,116.00
2023-03-29T21:23:24.248Z,108.50
2023-03-29T21:24:56.033Z,110.50
2023-03-29T21:26:28.145Z,113.25
2023-03-29T21:28:00.003Z,104.25
2023-03-29T21:29:32.007Z,103.00
2023-03-29T21:31:06.061Z,101.80
2023-03-29T21:32:38.265Z,107.20
2023-03-29T21:34:10.160Z,98.00
2023-03-29T21:35:42.177Z,97.20
2023-03-29T21:37:15.251Z,94.00
2023-03-29T21:38:47.276Z,89.50
2023-03-29T21:40:19.171Z,91.20
2023-03-29T21:41:51.171Z,84.75
2023-03-29T21:43:23.061Z,84.00
2023-03-29T21:44:54.971Z,84.25
2023-03-29T21:46:26.958Z,80.00
2023-03-29T21:47:58.946Z,79.75
2023-03-29T21:49:31.844Z,73.50
2023-03-29T21:51:04.145Z,72.25
2023-03-29T21:52:37.861Z,72.50
2023-03-29T21:54:11.021Z,69.00
2023-03-29T21:55:42.943Z,66.00
2023-03-29T21:57:14.845Z,66.25
2023-03-29T21:58:46.700Z,69.75
2023-03-29T22:00:18.897Z,59.00
2023-03-29T22:01:51.095Z,61.00
2023-03-29T22:03:23.056Z,61.75
2023-03-29T22:04:54.874Z,58.50
2023-03-29T22:06:26.848Z,53.75
2023-03-29T22:08:00.484Z,62.25
2023-03-29T22:09:33.399Z,72.75
2023-03-29T22:11:08.260Z,59.00
2023-03-29T22:12:41.492Z,65.00
2023-03-29T22:14:14.119Z,54.00
2023-03-29T22:15:47.523Z,52.00
2023-03-29T22:17:19.455Z,50.50
2023-03-29T22:18:52.584Z,50.00
2023-03-29T22:20:24.505Z,50.00
2023-03-29T22:22:01.539Z,48.75
2023-03-29T22:23:33.845Z,43.40
2023-03-29T22:25:06.724Z,50.00
2023-03-29T22:26:38.722Z,52.25
2023-03-29T22:28:10.720Z,69.75
2023-03-29T22:29:42.652Z,74.50
2023-03-29T22:31:16.918Z,72.25
2023-03-29T22:32:48.831Z,77.75
2023-03-29T22:34:20.834Z,73.75
